N907SP CYVR-KTIW
Flight info
| Callsign | N907SP |
|---|---|
| Flight time | 0h 29m |
| Altitude | 21000 |
| Route | CYVR/26L YVR DCT JAWBN |
| Aircraft | C750/M-SBDE3FGHRWXY/S |
Departure
| Time | 2026-05-04 16:57 |
|---|---|
| Airport | Vancouver International Airport (CYVR) |
Arrival
| Time | 2026-05-04 17:26 |
|---|---|
| Airport | Tacoma Narrows Airport (KTIW) |
| Time | Latitude | Longitude | Altitude | Speed | Heading |
|---|---|---|---|---|---|
| 2026-05-04 16:31 | 49.19407 | -123.18427 | 14 ft | 0 kts | 3° |
| 2026-05-04 16:49 | 49.19409 | -123.18402 | 14 ft | 2 kts | 130° |
| 2026-05-04 16:50 | 49.19384 | -123.18450 | 14 ft | 6 kts | 264° |
| 2026-05-04 16:50 | 49.19357 | -123.18573 | 14 ft | 8 kts | 199° |
| 2026-05-04 16:51 | 49.19239 | -123.18611 | 14 ft | 9 kts | 172° |
| 2026-05-04 16:51 | 49.19191 | -123.18563 | 14 ft | 8 kts | 153° |
| 2026-05-04 16:51 | 49.19077 | -123.18588 | 14 ft | 14 kts | 140° |
| 2026-05-04 16:52 | 49.18951 | -123.18393 | 15 ft | 16 kts | 107° |
| 2026-05-04 16:52 | 49.18930 | -123.18227 | 15 ft | 16 kts | 100° |
| 2026-05-04 16:53 | 49.18889 | -123.17863 | 15 ft | 18 kts | 99° |
| 2026-05-04 16:53 | 49.18819 | -123.17251 | 15 ft | 21 kts | 99° |
| 2026-05-04 16:54 | 49.18793 | -123.17031 | 15 ft | 21 kts | 100° |
| 2026-05-04 16:55 | 49.18671 | -123.16251 | 16 ft | 12 kts | 133° |
| 2026-05-04 16:55 | 49.18561 | -123.16206 | 16 ft | 7 kts | 191° |
| 2026-05-04 16:56 | 49.18498 | -123.16291 | 16 ft | 7 kts | 277° |
| 2026-05-04 16:56 | 49.18844 | -123.19578 | 549 ft | 181 kts | 276° |
| 2026-05-04 16:57 | 49.19010 | -123.21718 | 835 ft | 223 kts | 275° |
| 2026-05-04 16:57 | 49.18758 | -123.26548 | 2568 ft | 228 kts | 262° |
| 2026-05-04 16:58 | 49.16518 | -123.32484 | 5647 ft | 241 kts | 188° |
| 2026-05-04 16:58 | 49.14868 | -123.32119 | 6632 ft | 244 kts | 160° |
| 2026-05-04 16:59 | 49.12619 | -123.28264 | 8658 ft | 253 kts | 116° |
| 2026-05-04 17:00 | 49.09035 | -123.18370 | 12270 ft | 277 kts | 118° |
| 2026-05-04 17:00 | 49.04210 | -123.13787 | 14729 ft | 295 kts | 169° |
| 2026-05-04 17:01 | 49.00107 | -123.12655 | 16334 ft | 304 kts | 168° |
| 2026-05-04 17:01 | 48.95884 | -123.11367 | 18006 ft | 315 kts | 168° |
| 2026-05-04 17:02 | 48.91510 | -123.10079 | 19576 ft | 324 kts | 169° |
| 2026-05-04 17:02 | 48.87002 | -123.08739 | 20928 ft | 342 kts | 169° |
| 2026-05-04 17:03 | 48.84563 | -123.08018 | 20934 ft | 373 kts | 169° |
| 2026-05-04 17:03 | 48.81912 | -123.07235 | 20940 ft | 402 kts | 169° |
| 2026-05-04 17:03 | 48.76109 | -123.05520 | 20938 ft | 451 kts | 169° |
| 2026-05-04 17:04 | 48.69734 | -123.03643 | 20933 ft | 484 kts | 169° |
| 2026-05-04 17:04 | 48.62999 | -123.01665 | 20934 ft | 497 kts | 169° |
| 2026-05-04 17:05 | 48.56189 | -122.99671 | 20928 ft | 498 kts | 169° |
| 2026-05-04 17:05 | 48.49383 | -122.97683 | 20919 ft | 498 kts | 169° |
| 2026-05-04 17:06 | 48.42563 | -122.95698 | 20907 ft | 499 kts | 169° |
| 2026-05-04 17:06 | 48.39149 | -122.94705 | 20892 ft | 499 kts | 169° |
| 2026-05-04 17:07 | 48.32326 | -122.92725 | 20869 ft | 498 kts | 169° |
| 2026-05-04 17:07 | 48.30075 | -122.92073 | 20866 ft | 498 kts | 169° |
| 2026-05-04 17:07 | 48.25556 | -122.90767 | 20860 ft | 498 kts | 169° |
| 2026-05-04 17:07 | 48.22151 | -122.89784 | 20832 ft | 499 kts | 169° |
| 2026-05-04 17:08 | 48.18739 | -122.88799 | 20846 ft | 498 kts | 169° |
| 2026-05-04 17:08 | 48.11922 | -122.86838 | 20831 ft | 498 kts | 169° |
| 2026-05-04 17:08 | 48.08528 | -122.85863 | 20827 ft | 496 kts | 168° |
| 2026-05-04 17:09 | 48.05151 | -122.84895 | 20502 ft | 488 kts | 169° |
| 2026-05-04 17:09 | 48.01817 | -122.84363 | 19885 ft | 479 kts | 178° |
| 2026-05-04 17:09 | 47.98508 | -122.84429 | 19322 ft | 472 kts | 181° |
| 2026-05-04 17:10 | 47.91999 | -122.84543 | 18085 ft | 462 kts | 180° |
| 2026-05-04 17:10 | 47.82513 | -122.84744 | 16281 ft | 448 kts | 181° |
| 2026-05-04 17:11 | 47.79414 | -122.84798 | 15697 ft | 444 kts | 180° |
| 2026-05-04 17:11 | 47.76419 | -122.84847 | 15126 ft | 423 kts | 180° |
| 2026-05-04 17:11 | 47.70932 | -122.84966 | 14129 ft | 368 kts | 180° |
| 2026-05-04 17:12 | 47.68435 | -122.85014 | 13636 ft | 351 kts | 180° |
| 2026-05-04 17:12 | 47.63650 | -122.85105 | 12715 ft | 340 kts | 180° |
| 2026-05-04 17:13 | 47.56777 | -122.85241 | 11412 ft | 309 kts | 180° |
| 2026-05-04 17:14 | 47.50735 | -122.85358 | 10289 ft | 283 kts | 180° |
| 2026-05-04 17:14 | 47.48757 | -122.85397 | 9920 ft | 287 kts | 180° |
| 2026-05-04 17:14 | 47.44786 | -122.85475 | 9142 ft | 283 kts | 180° |
| 2026-05-04 17:15 | 47.42849 | -122.85513 | 8775 ft | 283 kts | 180° |
| 2026-05-04 17:15 | 47.38915 | -122.85589 | 8026 ft | 282 kts | 181° |
| 2026-05-04 17:16 | 47.35075 | -122.85663 | 7298 ft | 263 kts | 181° |
| 2026-05-04 17:16 | 47.29797 | -122.85740 | 6291 ft | 249 kts | 179° |
| 2026-05-04 17:17 | 47.28144 | -122.85085 | 5923 ft | 242 kts | 158° |
| 2026-05-04 17:17 | 47.23533 | -122.82236 | 5009 ft | 231 kts | 160° |
| 2026-05-04 17:18 | 47.22071 | -122.81365 | 4713 ft | 223 kts | 159° |
| 2026-05-04 17:18 | 47.19249 | -122.79667 | 4132 ft | 218 kts | 160° |
| 2026-05-04 17:19 | 47.16468 | -122.77997 | 3564 ft | 216 kts | 159° |
| 2026-05-04 17:19 | 47.13706 | -122.76341 | 2990 ft | 214 kts | 158° |
| 2026-05-04 17:20 | 47.11034 | -122.74737 | 2424 ft | 200 kts | 159° |
| 2026-05-04 17:20 | 47.08821 | -122.72508 | 1880 ft | 196 kts | 118° |
| 2026-05-04 17:20 | 47.08482 | -122.70620 | 1974 ft | 191 kts | 97° |
| 2026-05-04 17:21 | 47.08159 | -122.66548 | 1997 ft | 204 kts | 97° |
| 2026-05-04 17:21 | 47.08378 | -122.62519 | 1949 ft | 202 kts | 58° |
| 2026-05-04 17:22 | 47.09398 | -122.61146 | 1956 ft | 203 kts | 26° |
| 2026-05-04 17:22 | 47.10750 | -122.60690 | 1977 ft | 198 kts | 5° |
| 2026-05-04 17:23 | 47.14877 | -122.59946 | 1993 ft | 198 kts | 6° |
| 2026-05-04 17:23 | 47.16225 | -122.59706 | 1999 ft | 194 kts | 5° |
| 2026-05-04 17:23 | 47.18950 | -122.59226 | 2000 ft | 193 kts | 5° |
| 2026-05-04 17:24 | 47.20190 | -122.59000 | 1931 ft | 163 kts | 6° |
| 2026-05-04 17:24 | 47.23307 | -122.58453 | 835 ft | 145 kts | 4° |
| 2026-05-04 17:25 | 47.24320 | -122.58260 | 649 ft | 148 kts | 5° |
| 2026-05-04 17:25 | 47.26310 | -122.57899 | 299 ft | 135 kts | 5° |
| 2026-05-04 17:26 | 47.27539 | -122.57651 | 291 ft | 17 kts | 29° |
| 2026-05-04 17:26 | 47.27501 | -122.57427 | 293 ft | 7 kts | 170° |
| 2026-05-04 17:27 | 47.27406 | -122.57484 | 294 ft | 13 kts | 185° |
| 2026-05-04 17:27 | 47.27160 | -122.57528 | 297 ft | 19 kts | 187° |
| 2026-05-04 17:28 | 47.26965 | -122.57561 | 298 ft | 6 kts | 179° |
| 2026-05-04 17:29 | 47.26944 | -122.57506 | 299 ft | 0 kts | 98° |
| 2026-05-04 17:30 | 49.18881 | -123.17790 | 15 ft | 19 kts | 99° |
| 2026-05-04 17:31 | 49.18833 | -123.17382 | 15 ft | 20 kts | 100° |
| 2026-05-04 17:31 | 49.18760 | -123.16725 | 15 ft | 21 kts | 100° |
| 2026-05-04 17:32 | 49.18706 | -123.16313 | 15 ft | 16 kts | 120° |
| 2026-05-04 17:33 | 49.18541 | -123.16211 | 16 ft | 7 kts | 187° |
| 2026-05-04 17:33 | 49.18498 | -123.16247 | 16 ft | 7 kts | 248° |
| 2026-05-04 17:34 | 49.18753 | -123.18535 | 282 ft | 164 kts | 277° |
| 2026-05-04 17:34 | 49.18913 | -123.20422 | 675 ft | 199 kts | 276° |
| 2026-05-04 17:35 | 49.18660 | -123.27598 | 3093 ft | 229 kts | 262° |
| 2026-05-04 17:35 | 47.21957 | -122.58675 | 1287 ft | 148 kts | 3° |
| 2026-05-04 17:35 | 47.22961 | -122.58508 | 924 ft | 144 kts | 4° |
| 2026-05-04 17:36 | 47.23968 | -122.58327 | 693 ft | 147 kts | 5° |
| 2026-05-04 17:36 | 47.24993 | -122.58140 | 534 ft | 147 kts | 5° |
| 2026-05-04 17:36 | 47.25996 | -122.57958 | 355 ft | 141 kts | 5° |
| 2026-05-04 17:36 | 47.26882 | -122.57803 | 302 ft | 114 kts | 6° |
| 2026-05-04 17:37 | 47.27468 | -122.57683 | 292 ft | 46 kts | 13° |
| 2026-05-04 17:37 | 47.27554 | -122.57579 | 292 ft | 10 kts | 94° |
| 2026-05-04 17:37 | 47.27549 | -122.57483 | 296 ft | 9 kts | 99° |
| 2026-05-04 17:37 | 47.27515 | -122.57432 | 295 ft | 6 kts | 161° |
| 2026-05-04 17:38 | 47.27465 | -122.57435 | 295 ft | 7 kts | 210° |
| 2026-05-04 17:38 | 47.27412 | -122.57483 | 294 ft | 12 kts | 185° |